Zefyros — SZHX — position and weather

sailwx.info

Track history (hours):
 
Tides and Currents Weather Stations Pressure Air Temp Water Temp Dewpoint Dewpoint Depression Visibility Wind Speed Wind Dir Waves Ship Positions

Zefyros

Last reported at 2018-Jun-22 13:30 UTC. Time now 2018-Jun-22 13:31 UTC.
Position N 38°02' E 023°32'.

Length 77 m; draft 4.5 m.

Type: Ship. MMSI: 240485000.

Date/timePositionNaut miles runAvg speedWind from/ knotsBaromVisibWave heightAir tempDewpointWater temp
2018-Jun-22 13:30N 38°02' E 023°32'0 0.0
2018-Jun-22 13:00N 38°02' E 023°32'0 0.0
2018-Jun-22 12:30N 38°02' E 023°32'0 0.0
2018-Jun-22 12:00N 38°02' E 023°32'0 0.0
2018-Jun-22 11:30N 38°02' E 023°32'0 0.1
2018-Jun-22 11:01N 38°02' E 023°32'0 0.0
2018-Jun-22 10:30N 38°02' E 023°32'0 0.1
2018-Jun-22 10:00N 38°02' E 023°32'0 0.0
2018-Jun-22 09:30N 38°02' E 023°32'0 0.0
2018-Jun-22 09:00N 38°02' E 023°32'0 0.0
2018-Jun-22 08:30N 38°02' E 023°32'0 0.0
2018-Jun-22 08:01N 38°02' E 023°32'0 0.0
2018-Jun-22 07:30N 38°02' E 023°32'0 0.0
2018-Jun-22 07:00N 38°02' E 023°32'0 0.0
2018-Jun-22 06:30N 38°02' E 023°32'0 0.0
2018-Jun-22 06:00N 38°02' E 023°32'0 0.0
2018-Jun-22 05:30N 38°02' E 023°32'1 2.5
2018-Jun-22 05:00N 38°01' E 023°33'5 9.7
2018-Jun-22 04:31N 37°56' E 023°35'3 6.6
2018-Jun-22 04:00N 37°53' E 023°36'611.7
2018-Jun-22 03:30N 37°48' E 023°40'510.9
2018-Jun-22 03:00N 37°43' E 023°43'510.4
2018-Jun-22 02:30N 37°40' E 023°48'510.7
2018-Jun-22 02:00N 37°38' E 023°54'108 2.3
2018-Jun-20 02:23N 39°26' E 023°53'411.0
2018-Jun-20 02:00N 39°28' E 023°58'510.6
2018-Jun-20 01:30N 39°31' E 024°04'611.1
2018-Jun-20 01:01N 39°34' E 024°10'1711.8
2018-Jun-19 23:35N 39°41' E 024°30'111.7
2018-Jun-19 23:30N 39°41' E 024°31'611.7
2018-Jun-19 23:01N 39°44' E 024°37'611.7
2018-Jun-19 22:31N 39°46' E 024°44'612.0
2018-Jun-19 21:58N 39°49' E 024°52'612.4
2018-Jun-19 21:31N 39°51' E 024°59'4 7.1
2018-Jun-19 21:01N 39°52' E 025°03'0 0.1
2018-Jun-19 20:30N 39°52' E 025°03'0 0.0
2018-Jun-19 20:00N 39°52' E 025°03'0 0.0
2018-Jun-19 19:29N 39°52' E 025°03'0 0.0
2018-Jun-19 19:00N 39°52' E 025°03'0 0.0
2018-Jun-19 18:31N 39°52' E 025°03'0 0.0
2018-Jun-19 18:00N 39°52' E 025°03'0 0.0
2018-Jun-19 17:30N 39°52' E 025°03'0 0.0
2018-Jun-19 16:59N 39°52' E 025°03'0 0.0
2018-Jun-19 16:19N 39°52' E 025°03'0 0.0
2018-Jun-19 13:58N 39°52' E 025°03'0 0.0
2018-Jun-19 12:12N 39°52' E 025°03'0 0.0
2018-Jun-19 12:01N 39°52' E 025°03'0 0.0
2018-Jun-19 11:17N 39°52' E 025°03'0 0.0
2018-Jun-19 10:59N 39°52' E 025°03'0 0.0
2018-Jun-19 10:31N 39°52' E 025°03'0 0.0
2018-Jun-19 10:00N 39°52' E 025°03'0 0.0
2018-Jun-19 09:30N 39°52' E 025°03'0 0.0
2018-Jun-19 09:00N 39°52' E 025°03'0 0.0
2018-Jun-19 08:31N 39°52' E 025°03'0 0.0
2018-Jun-19 08:01N 39°52' E 025°03'0 0.0
2018-Jun-19 07:30N 39°52' E 025°03'0 0.0
2018-Jun-19 07:00N 39°52' E 025°03'0 0.0
2018-Jun-19 06:29N 39°52' E 025°03'0 0.0
2018-Jun-19 06:00N 39°52' E 025°03'0 0.0
2018-Jun-19 05:30N 39°52' E 025°03'0 0.0
2018-Jun-19 05:00N 39°52' E 025°03'0 0.0
2018-Jun-19 04:30N 39°52' E 025°03'0 1.0
2018-Jun-19 04:00N 39°52' E 025°03'149 2.9
2018-Jun-17 01:00N 37°29' E 025°56'711.8
2018-Jun-17 00:26N 37°30' E 025°47'512.0
2018-Jun-17 00:00N 37°30' E 025°41'612.5
2018-Jun-16 23:30N 37°31' E 025°33'612.3
2018-Jun-16 23:00N 37°31' E 025°25'612.4
2018-Jun-16 22:30N 37°31' E 025°17'3 6.8
2018-Jun-16 22:00N 37°28' E 025°19'0 0.1
2018-Jun-16 21:29N 37°28' E 025°20'0 0.0
2018-Jun-16 20:59N 37°28' E 025°20'0 0.0
2018-Jun-16 20:30N 37°28' E 025°20'0 0.0
2018-Jun-16 20:00N 37°28' E 025°20'0 0.0
2018-Jun-16 19:30N 37°28' E 025°20'0 0.0
2018-Jun-16 19:00N 37°28' E 025°20'0 0.0
2018-Jun-16 18:30N 37°28' E 025°20'0 0.0
2018-Jun-16 18:00N 37°28' E 025°20'0 0.0
2018-Jun-16 17:30N 37°28' E 025°20'0 0.0
2018-Jun-16 17:00N 37°28' E 025°20'0 0.0
2018-Jun-16 16:30N 37°28' E 025°20'0 0.0
2018-Jun-16 16:00N 37°28' E 025°20'0 0.0
2018-Jun-16 15:30N 37°28' E 025°20'0 0.0
2018-Jun-16 15:00N 37°28' E 025°19'3 6.0
2018-Jun-16 14:30N 37°29' E 025°16'612.3
2018-Jun-16 14:00N 37°31' E 025°09'1 1.8
2018-Jun-16 13:30N 37°32' E 025°09'0 0.0
2018-Jun-16 13:00N 37°32' E 025°09'0 0.0
2018-Jun-16 12:30N 37°32' E 025°09'0 0.0
2018-Jun-16 12:00N 37°32' E 025°09'0 0.0
2018-Jun-16 11:30N 37°32' E 025°09'0 0.0
2018-Jun-16 11:00N 37°32' E 025°09'0 0.0
2018-Jun-16 10:30N 37°32' E 025°09'2 3.6
2018-Jun-16 10:00N 37°32' E 025°07'711.9
2018-Jun-16 09:24N 37°28' E 024°60'3 7.5
2018-Jun-16 08:58N 37°26' E 024°56'0 0.0
2018-Jun-16 08:01N 37°26' E 024°56'0 0.0
2018-Jun-16 07:34N 37°26' E 024°56'0 0.0
2018-Jun-16 07:25N 37°26' E 024°56'0 0.0
2018-Jun-16 06:07N 37°26' E 024°56'0 0.0
2018-Jun-16 05:53N 37°26' E 024°56'0 0.0
2018-Jun-16 05:30N 37°26' E 024°56'0 0.0
2018-Jun-15 19:12N 37°26' E 024°56'0 0.0
2018-Jun-15 18:44N 37°26' E 024°56'0 0.0
2018-Jun-15 18:30N 37°26' E 024°56'0 0.0
2018-Jun-15 17:43N 37°26' E 024°56'0 0.1
2018-Jun-15 17:30N 37°26' E 024°56'3 5.5
2018-Jun-15 17:00N 37°28' E 024°58'610.7
2018-Jun-15 16:26N 37°32' E 024°52'512.6
2018-Jun-15 16:00N 37°32' E 024°45'23 3.9
2018-Jun-15 10:09N 37°29' E 024°17'91 2.9
2018-Jun-14 02:46N 38°60' E 024°07'1611.3
2018-Jun-14 01:23N 39°04' E 024°27'411.1
2018-Jun-14 01:00N 39°04' E 024°32'  
Track history (hours):
 
Tides and Currents Weather Stations Pressure Air Temp Water Temp Dewpoint Dewpoint Depression Visibility Wind Speed Wind Dir Waves Ship Positions

Zefyros

Last reported at 2018-Jun-22 13:30 UTC. Time now 2018-Jun-22 13:31 UTC.
Position N 38°02' E 023°32'.

Length 77 m; draft 4.5 m.

Type: Ship. MMSI: 240485000.

Date/timePositionNaut miles runAvg speedWind from/ knotsBaromVisibWave heightAir tempDewpointWater temp
2018-Jun-22 13:30N 38°02' E 023°32'0 0.0
2018-Jun-22 13:00N 38°02' E 023°32'0 0.0
2018-Jun-22 12:30N 38°02' E 023°32'0 0.0
2018-Jun-22 12:00N 38°02' E 023°32'0 0.0
2018-Jun-22 11:30N 38°02' E 023°32'0 0.1
2018-Jun-22 11:01N 38°02' E 023°32'0 0.0
2018-Jun-22 10:30N 38°02' E 023°32'0 0.1
2018-Jun-22 10:00N 38°02' E 023°32'0 0.0
2018-Jun-22 09:30N 38°02' E 023°32'0 0.0
2018-Jun-22 09:00N 38°02' E 023°32'0 0.0
2018-Jun-22 08:30N 38°02' E 023°32'0 0.0
2018-Jun-22 08:01N 38°02' E 023°32'0 0.0
2018-Jun-22 07:30N 38°02' E 023°32'0 0.0
2018-Jun-22 07:00N 38°02' E 023°32'0 0.0
2018-Jun-22 06:30N 38°02' E 023°32'0 0.0
2018-Jun-22 06:00N 38°02' E 023°32'0 0.0
2018-Jun-22 05:30N 38°02' E 023°32'1 2.5
2018-Jun-22 05:00N 38°01' E 023°33'5 9.7
2018-Jun-22 04:31N 37°56' E 023°35'3 6.6
2018-Jun-22 04:00N 37°53' E 023°36'611.7
2018-Jun-22 03:30N 37°48' E 023°40'510.9
2018-Jun-22 03:00N 37°43' E 023°43'510.4
2018-Jun-22 02:30N 37°40' E 023°48'510.7
2018-Jun-22 02:00N 37°38' E 023°54'108 2.3
2018-Jun-20 02:23N 39°26' E 023°53'411.0
2018-Jun-20 02:00N 39°28' E 023°58'510.6
2018-Jun-20 01:30N 39°31' E 024°04'611.1
2018-Jun-20 01:01N 39°34' E 024°10'1711.8
2018-Jun-19 23:35N 39°41' E 024°30'111.7
2018-Jun-19 23:30N 39°41' E 024°31'611.7
2018-Jun-19 23:01N 39°44' E 024°37'611.7
2018-Jun-19 22:31N 39°46' E 024°44'612.0
2018-Jun-19 21:58N 39°49' E 024°52'612.4
2018-Jun-19 21:31N 39°51' E 024°59'4 7.1
2018-Jun-19 21:01N 39°52' E 025°03'0 0.1
2018-Jun-19 20:30N 39°52' E 025°03'0 0.0
2018-Jun-19 20:00N 39°52' E 025°03'0 0.0
2018-Jun-19 19:29N 39°52' E 025°03'0 0.0
2018-Jun-19 19:00N 39°52' E 025°03'0 0.0
2018-Jun-19 18:31N 39°52' E 025°03'0 0.0
2018-Jun-19 18:00N 39°52' E 025°03'0 0.0
2018-Jun-19 17:30N 39°52' E 025°03'0 0.0
2018-Jun-19 16:59N 39°52' E 025°03'0 0.0
2018-Jun-19 16:19N 39°52' E 025°03'0 0.0
2018-Jun-19 13:58N 39°52' E 025°03'0 0.0
2018-Jun-19 12:12N 39°52' E 025°03'0 0.0
2018-Jun-19 12:01N 39°52' E 025°03'0 0.0
2018-Jun-19 11:17N 39°52' E 025°03'0 0.0
2018-Jun-19 10:59N 39°52' E 025°03'0 0.0
2018-Jun-19 10:31N 39°52' E 025°03'0 0.0
2018-Jun-19 10:00N 39°52' E 025°03'0 0.0
2018-Jun-19 09:30N 39°52' E 025°03'0 0.0
2018-Jun-19 09:00N 39°52' E 025°03'0 0.0
2018-Jun-19 08:31N 39°52' E 025°03'0 0.0
2018-Jun-19 08:01N 39°52' E 025°03'0 0.0
2018-Jun-19 07:30N 39°52' E 025°03'0 0.0
2018-Jun-19 07:00N 39°52' E 025°03'0 0.0
2018-Jun-19 06:29N 39°52' E 025°03'0 0.0
2018-Jun-19 06:00N 39°52' E 025°03'0 0.0
2018-Jun-19 05:30N 39°52' E 025°03'0 0.0
2018-Jun-19 05:00N 39°52' E 025°03'0 0.0
2018-Jun-19 04:30N 39°52' E 025°03'0 1.0
2018-Jun-19 04:00N 39°52' E 025°03'149 2.9
2018-Jun-17 01:00N 37°29' E 025°56'711.8
2018-Jun-17 00:26N 37°30' E 025°47'512.0
2018-Jun-17 00:00N 37°30' E 025°41'612.5
2018-Jun-16 23:30N 37°31' E 025°33'612.3
2018-Jun-16 23:00N 37°31' E 025°25'612.4
2018-Jun-16 22:30N 37°31' E 025°17'3 6.8
2018-Jun-16 22:00N 37°28' E 025°19'0 0.1
2018-Jun-16 21:29N 37°28' E 025°20'0 0.0
2018-Jun-16 20:59N 37°28' E 025°20'0 0.0
2018-Jun-16 20:30N 37°28' E 025°20'0 0.0
2018-Jun-16 20:00N 37°28' E 025°20'0 0.0
2018-Jun-16 19:30N 37°28' E 025°20'0 0.0
2018-Jun-16 19:00N 37°28' E 025°20'0 0.0
2018-Jun-16 18:30N 37°28' E 025°20'0 0.0
2018-Jun-16 18:00N 37°28' E 025°20'0 0.0
2018-Jun-16 17:30N 37°28' E 025°20'0 0.0
2018-Jun-16 17:00N 37°28' E 025°20'0 0.0
2018-Jun-16 16:30N 37°28' E 025°20'0 0.0
2018-Jun-16 16:00N 37°28' E 025°20'0 0.0
2018-Jun-16 15:30N 37°28' E 025°20'0 0.0
2018-Jun-16 15:00N 37°28' E 025°19'3 6.0
2018-Jun-16 14:30N 37°29' E 025°16'612.3
2018-Jun-16 14:00N 37°31' E 025°09'1 1.8
2018-Jun-16 13:30N 37°32' E 025°09'0 0.0
2018-Jun-16 13:00N 37°32' E 025°09'0 0.0
2018-Jun-16 12:30N 37°32' E 025°09'0 0.0
2018-Jun-16 12:00N 37°32' E 025°09'0 0.0
2018-Jun-16 11:30N 37°32' E 025°09'0 0.0
2018-Jun-16 11:00N 37°32' E 025°09'0 0.0
2018-Jun-16 10:30N 37°32' E 025°09'2 3.6
2018-Jun-16 10:00N 37°32' E 025°07'711.9
2018-Jun-16 09:24N 37°28' E 024°60'3 7.5
2018-Jun-16 08:58N 37°26' E 024°56'0 0.0
2018-Jun-16 08:01N 37°26' E 024°56'0 0.0
2018-Jun-16 07:34N 37°26' E 024°56'0 0.0
2018-Jun-16 07:25N 37°26' E 024°56'0 0.0
2018-Jun-16 06:07N 37°26' E 024°56'0 0.0
2018-Jun-16 05:53N 37°26' E 024°56'0 0.0
2018-Jun-16 05:30N 37°26' E 024°56'0 0.0
2018-Jun-15 19:12N 37°26' E 024°56'0 0.0
2018-Jun-15 18:44N 37°26' E 024°56'0 0.0
2018-Jun-15 18:30N 37°26' E 024°56'0 0.0
2018-Jun-15 17:43N 37°26' E 024°56'0 0.1
2018-Jun-15 17:30N 37°26' E 024°56'3 5.5
2018-Jun-15 17:00N 37°28' E 024°58'610.7
2018-Jun-15 16:26N 37°32' E 024°52'512.6
2018-Jun-15 16:00N 37°32' E 024°45'23 3.9
2018-Jun-15 10:09N 37°29' E 024°17'91 2.9
2018-Jun-14 02:46N 38°60' E 024°07'1611.3
2018-Jun-14 01:23N 39°04' E 024°27'411.1
2018-Jun-14 01:00N 39°04' E 024°32'  

Dump ship's entire track history